sensor_id;sensor_type;location;lat;lon;timestamp;P1;durP1;ratioP1;P2;durP2;ratioP2
27025;SDS011;14565;48.626;8.978;2022-11-02T00:01:48;7.63;;;2.90;;
27025;SDS011;14565;48.626;8.978;2022-11-02T00:04:13;8.65;;;2.92;;
27025;SDS011;14565;48.626;8.978;2022-11-02T00:06:39;9.73;;;2.53;;
27025;SDS011;14565;48.626;8.978;2022-11-02T00:09:05;4.05;;;2.22;;
27025;SDS011;14565;48.626;8.978;2022-11-02T00:11:32;9.73;;;2.97;;
27025;SDS011;14565;48.626;8.978;2022-11-02T00:13:57;6.72;;;2.70;;
27025;SDS011;14565;48.626;8.978;2022-11-02T00:16:23;6.85;;;2.17;;
27025;SDS011;14565;48.626;8.978;2022-11-02T00:18:50;9.55;;;2.35;;
27025;SDS011;14565;48.626;8.978;2022-11-02T00:21:19;6.43;;;2.53;;
27025;SDS011;14565;48.626;8.978;2022-11-02T00:23:46;7.70;;;2.25;;
27025;SDS011;14565;48.626;8.978;2022-11-02T00:26:12;8.32;;;2.35;;
27025;SDS011;14565;48.626;8.978;2022-11-02T00:28:38;8.80;;;2.00;;
27025;SDS011;14565;48.626;8.978;2022-11-02T00:31:04;7.18;;;1.88;;
27025;SDS011;14565;48.626;8.978;2022-11-02T00:33:30;12.73;;;2.70;;
27025;SDS011;14565;48.626;8.978;2022-11-02T00:35:55;10.60;;;2.30;;
27025;SDS011;14565;48.626;8.978;2022-11-02T00:38:21;7.25;;;2.15;;
27025;SDS011;14565;48.626;8.978;2022-11-02T00:40:47;7.00;;;2.22;;
27025;SDS011;14565;48.626;8.978;2022-11-02T00:43:13;9.35;;;2.63;;
27025;SDS011;14565;48.626;8.978;2022-11-02T00:45:38;8.43;;;2.55;;
27025;SDS011;14565;48.626;8.978;2022-11-02T00:48:04;7.13;;;2.83;;
27025;SDS011;14565;48.626;8.978;2022-11-02T00:50:30;7.72;;;2.50;;
27025;SDS011;14565;48.626;8.978;2022-11-02T00:52:56;5.15;;;2.88;;
27025;SDS011;14565;48.626;8.978;2022-11-02T00:55:22;6.28;;;2.72;;
27025;SDS011;14565;48.626;8.978;2022-11-02T00:57:48;9.93;;;2.80;;
27025;SDS011;14565;48.626;8.978;2022-11-02T01:00:14;8.10;;;2.65;;
27025;SDS011;14565;48.626;8.978;2022-11-02T01:02:40;8.95;;;2.60;;
27025;SDS011;14565;48.626;8.978;2022-11-02T01:05:07;8.30;;;2.78;;
27025;SDS011;14565;48.626;8.978;2022-11-02T01:07:34;8.95;;;2.90;;
27025;SDS011;14565;48.626;8.978;2022-11-02T01:10:01;8.27;;;2.40;;
27025;SDS011;14565;48.626;8.978;2022-11-02T01:12:28;12.25;;;3.10;;
27025;SDS011;14565;48.626;8.978;2022-11-02T01:14:54;7.00;;;2.72;;
27025;SDS011;14565;48.626;8.978;2022-11-02T01:17:20;7.50;;;2.50;;
27025;SDS011;14565;48.626;8.978;2022-11-02T01:19:45;8.68;;;2.95;;
27025;SDS011;14565;48.626;8.978;2022-11-02T01:22:11;7.35;;;2.67;;
27025;SDS011;14565;48.626;8.978;2022-11-02T01:24:37;5.47;;;2.83;;
27025;SDS011;14565;48.626;8.978;2022-11-02T01:27:03;8.15;;;2.75;;
27025;SDS011;14565;48.626;8.978;2022-11-02T01:29:28;4.50;;;2.22;;
27025;SDS011;14565;48.626;8.978;2022-11-02T01:31:54;7.72;;;2.28;;
27025;SDS011;14565;48.626;8.978;2022-11-02T01:34:19;7.82;;;2.50;;
27025;SDS011;14565;48.626;8.978;2022-11-02T01:36:46;9.05;;;2.30;;
27025;SDS011;14565;48.626;8.978;2022-11-02T01:39:12;7.43;;;2.55;;
27025;SDS011;14565;48.626;8.978;2022-11-02T01:41:38;8.57;;;2.67;;
27025;SDS011;14565;48.626;8.978;2022-11-02T01:44:19;6.82;;;2.20;;
27025;SDS011;14565;48.626;8.978;2022-11-02T01:46:50;7.50;;;2.50;;
27025;SDS011;14565;48.626;8.978;2022-11-02T01:49:20;7.25;;;2.25;;
27025;SDS011;14565;48.626;8.978;2022-11-02T01:51:57;6.05;;;2.22;;
27025;SDS011;14565;48.626;8.978;2022-11-02T01:54:25;7.60;;;2.45;;
27025;SDS011;14565;48.626;8.978;2022-11-02T01:56:56;7.82;;;2.40;;
27025;SDS011;14565;48.626;8.978;2022-11-02T01:59:27;8.75;;;2.30;;
27025;SDS011;14565;48.626;8.978;2022-11-02T02:01:57;7.32;;;2.28;;
27025;SDS011;14565;48.626;8.978;2022-11-02T02:04:23;6.57;;;2.38;;
27025;SDS011;14565;48.626;8.978;2022-11-02T02:06:50;7.80;;;2.35;;
27025;SDS011;14565;48.626;8.978;2022-11-02T02:09:20;3.33;;;2.20;;
27025;SDS011;14565;48.626;8.978;2022-11-02T02:11:47;8.52;;;2.75;;
27025;SDS011;14565;48.626;8.978;2022-11-02T02:14:16;6.15;;;2.15;;
27025;SDS011;14565;48.626;8.978;2022-11-02T02:25:25;7.07;;;2.17;;
27025;SDS011;14565;48.626;8.978;2022-11-02T02:30:46;7.43;;;2.35;;
27025;SDS011;14565;48.626;8.978;2022-11-02T02:36:17;6.40;;;2.05;;
27025;SDS011;14565;48.626;8.978;2022-11-02T02:38:45;7.35;;;2.13;;
27025;SDS011;14565;48.626;8.978;2022-11-02T02:43:56;5.80;;;2.05;;
27025;SDS011;14565;48.626;8.978;2022-11-02T02:46:44;7.18;;;1.90;;
27025;SDS011;14565;48.626;8.978;2022-11-02T02:49:16;8.13;;;2.30;;
27025;SDS011;14565;48.626;8.978;2022-11-02T02:51:44;6.32;;;1.95;;
27025;SDS011;14565;48.626;8.978;2022-11-02T02:54:14;4.57;;;2.15;;
27025;SDS011;14565;48.626;8.978;2022-11-02T02:56:46;7.95;;;2.53;;
27025;SDS011;14565;48.626;8.978;2022-11-02T02:59:17;7.32;;;1.70;;
27025;SDS011;14565;48.626;8.978;2022-11-02T03:01:48;7.18;;;2.03;;
27025;SDS011;14565;48.626;8.978;2022-11-02T03:04:14;4.85;;;1.77;;
27025;SDS011;14565;48.626;8.978;2022-11-02T03:06:40;6.00;;;2.25;;
27025;SDS011;14565;48.626;8.978;2022-11-02T03:09:11;4.47;;;1.73;;
27025;SDS011;14565;48.626;8.978;2022-11-02T03:12:01;5.78;;;2.10;;
27025;SDS011;14565;48.626;8.978;2022-11-02T03:17:07;6.47;;;2.00;;
27025;SDS011;14565;48.626;8.978;2022-11-02T03:22:30;4.75;;;1.70;;
27025;SDS011;14565;48.626;8.978;2022-11-02T03:27:34;8.68;;;2.03;;
27025;SDS011;14565;48.626;8.978;2022-11-02T03:30:16;5.80;;;1.70;;
27025;SDS011;14565;48.626;8.978;2022-11-02T03:33:48;5.78;;;1.80;;
27025;SDS011;14565;48.626;8.978;2022-11-02T03:35:42;5.15;;;2.22;;
27025;SDS011;14565;48.626;8.978;2022-11-02T03:38:11;7.78;;;2.10;;
27025;SDS011;14565;48.626;8.978;2022-11-02T03:40:43;7.25;;;1.90;;
27025;SDS011;14565;48.626;8.978;2022-11-02T03:43:11;7.03;;;1.70;;
27025;SDS011;14565;48.626;8.978;2022-11-02T03:45:39;6.00;;;1.90;;
27025;SDS011;14565;48.626;8.978;2022-11-02T03:48:09;5.78;;;1.60;;
27025;SDS011;14565;48.626;8.978;2022-11-02T03:50:37;5.28;;;1.63;;
27025;SDS011;14565;48.626;8.978;2022-11-02T03:53:08;4.05;;;1.50;;
27025;SDS011;14565;48.626;8.978;2022-11-02T03:55:44;5.03;;;1.73;;
27025;SDS011;14565;48.626;8.978;2022-11-02T03:58:13;7.10;;;1.58;;
27025;SDS011;14565;48.626;8.978;2022-11-02T04:00:43;4.32;;;1.40;;
27025;SDS011;14565;48.626;8.978;2022-11-02T04:05:43;4.05;;;1.63;;
27025;SDS011;14565;48.626;8.978;2022-11-02T04:08:09;8.18;;;1.50;;
27025;SDS011;14565;48.626;8.978;2022-11-02T04:10:45;4.40;;;1.48;;
27025;SDS011;14565;48.626;8.978;2022-11-02T04:13:29;5.97;;;1.50;;
27025;SDS011;14565;48.626;8.978;2022-11-02T04:16:14;7.18;;;1.95;;
27025;SDS011;14565;48.626;8.978;2022-11-02T04:18:40;8.00;;;2.97;;
27025;SDS011;14565;48.626;8.978;2022-11-02T04:21:25;5.65;;;1.88;;
27025;SDS011;14565;48.626;8.978;2022-11-02T04:23:51;5.50;;;1.42;;
27025;SDS011;14565;48.626;8.978;2022-11-02T04:26:35;6.95;;;1.30;;
27025;SDS011;14565;48.626;8.978;2022-11-02T04:29:01;6.47;;;1.73;;
27025;SDS011;14565;48.626;8.978;2022-11-02T04:31:30;5.72;;;1.70;;
27025;SDS011;14565;48.626;8.978;2022-11-02T04:33:56;5.88;;;1.50;;
27025;SDS011;14565;48.626;8.978;2022-11-02T04:36:24;3.47;;;1.33;;
27025;SDS011;14565;48.626;8.978;2022-11-02T04:38:53;5.60;;;1.48;;
27025;SDS011;14565;48.626;8.978;2022-11-02T04:41:19;6.10;;;1.50;;
27025;SDS011;14565;48.626;8.978;2022-11-02T04:44:05;7.65;;;1.70;;
27025;SDS011;14565;48.626;8.978;2022-11-02T04:46:32;5.72;;;1.33;;
27025;SDS011;14565;48.626;8.978;2022-11-02T04:49:00;8.32;;;1.88;;
27025;SDS011;14565;48.626;8.978;2022-11-02T04:51:26;7.60;;;1.40;;
27025;SDS011;14565;48.626;8.978;2022-11-02T04:53:53;5.77;;;1.50;;
27025;SDS011;14565;48.626;8.978;2022-11-02T04:56:20;8.55;;;1.23;;
27025;SDS011;14565;48.626;8.978;2022-11-02T04:58:49;7.68;;;2.05;;
27025;SDS011;14565;48.626;8.978;2022-11-02T05:01:16;7.10;;;1.45;;
27025;SDS011;14565;48.626;8.978;2022-11-02T05:03:45;3.33;;;1.65;;
27025;SDS011;14565;48.626;8.978;2022-11-02T05:06:12;7.03;;;1.40;;
27025;SDS011;14565;48.626;8.978;2022-11-02T05:08:38;8.32;;;1.35;;
27025;SDS011;14565;48.626;8.978;2022-11-02T05:11:04;6.55;;;1.38;;
27025;SDS011;14565;48.626;8.978;2022-11-02T05:13:31;5.07;;;1.30;;
27025;SDS011;14565;48.626;8.978;2022-11-02T05:15:57;5.03;;;1.40;;
27025;SDS011;14565;48.626;8.978;2022-11-02T05:18:24;6.95;;;1.45;;
27025;SDS011;14565;48.626;8.978;2022-11-02T05:20:55;9.30;;;1.45;;
27025;SDS011;14565;48.626;8.978;2022-11-02T05:23:23;9.52;;;1.40;;
27025;SDS011;14565;48.626;8.978;2022-11-02T05:25:56;8.18;;;1.30;;
27025;SDS011;14565;48.626;8.978;2022-11-02T05:28:23;6.95;;;1.52;;
27025;SDS011;14565;48.626;8.978;2022-11-02T05:30:50;11.07;;;1.77;;
27025;SDS011;14565;48.626;8.978;2022-11-02T05:33:16;8.10;;;1.60;;
27025;SDS011;14565;48.626;8.978;2022-11-02T05:35:42;5.53;;;1.67;;
27025;SDS011;14565;48.626;8.978;2022-11-02T05:38:08;5.03;;;1.17;;
27025;SDS011;14565;48.626;8.978;2022-11-02T05:40:34;8.75;;;1.40;;
27025;SDS011;14565;48.626;8.978;2022-11-02T05:43:02;13.65;;;1.65;;
27025;SDS011;14565;48.626;8.978;2022-11-02T05:45:29;8.50;;;1.60;;
27025;SDS011;14565;48.626;8.978;2022-11-02T05:47:55;5.25;;;1.27;;
27025;SDS011;14565;48.626;8.978;2022-11-02T05:50:23;6.78;;;1.42;;
27025;SDS011;14565;48.626;8.978;2022-11-02T05:52:49;8.48;;;1.30;;
27025;SDS011;14565;48.626;8.978;2022-11-02T05:55:14;6.35;;;1.55;;
27025;SDS011;14565;48.626;8.978;2022-11-02T05:57:40;10.10;;;1.40;;
27025;SDS011;14565;48.626;8.978;2022-11-02T06:00:06;8.35;;;1.50;;
27025;SDS011;14565;48.626;8.978;2022-11-02T06:02:32;8.57;;;2.03;;
27025;SDS011;14565;48.626;8.978;2022-11-02T06:04:58;6.40;;;2.47;;
27025;SDS011;14565;48.626;8.978;2022-11-02T06:07:24;6.78;;;1.30;;
27025;SDS011;14565;48.626;8.978;2022-11-02T06:09:50;7.05;;;1.45;;
27025;SDS011;14565;48.626;8.978;2022-11-02T06:12:15;8.85;;;3.03;;
27025;SDS011;14565;48.626;8.978;2022-11-02T06:14:41;9.10;;;1.55;;
27025;SDS011;14565;48.626;8.978;2022-11-02T06:17:07;4.88;;;1.15;;
27025;SDS011;14565;48.626;8.978;2022-11-02T06:19:33;4.85;;;1.10;;
27025;SDS011;14565;48.626;8.978;2022-11-02T06:21:58;5.82;;;1.20;;
27025;SDS011;14565;48.626;8.978;2022-11-02T06:24:24;6.30;;;1.15;;
27025;SDS011;14565;48.626;8.978;2022-11-02T06:26:49;9.50;;;1.40;;
27025;SDS011;14565;48.626;8.978;2022-11-02T06:29:16;7.35;;;1.75;;
27025;SDS011;14565;48.626;8.978;2022-11-02T06:31:41;7.43;;;1.35;;
27025;SDS011;14565;48.626;8.978;2022-11-02T06:34:07;4.88;;;1.17;;
27025;SDS011;14565;48.626;8.978;2022-11-02T06:36:33;3.88;;;1.20;;
27025;SDS011;14565;48.626;8.978;2022-11-02T06:38:59;10.15;;;1.25;;
27025;SDS011;14565;48.626;8.978;2022-11-02T06:41:24;6.20;;;1.60;;
27025;SDS011;14565;48.626;8.978;2022-11-02T06:43:50;5.05;;;1.05;;
27025;SDS011;14565;48.626;8.978;2022-11-02T06:46:15;5.50;;;1.27;;
27025;SDS011;14565;48.626;8.978;2022-11-02T06:48:41;6.72;;;1.38;;
27025;SDS011;14565;48.626;8.978;2022-11-02T06:51:10;6.22;;;1.52;;
27025;SDS011;14565;48.626;8.978;2022-11-02T06:53:35;9.07;;;1.48;;
27025;SDS011;14565;48.626;8.978;2022-11-02T06:56:01;6.38;;;1.15;;
27025;SDS011;14565;48.626;8.978;2022-11-02T06:58:27;9.85;;;1.73;;
27025;SDS011;14565;48.626;8.978;2022-11-02T07:01:14;7.03;;;1.40;;
27025;SDS011;14565;48.626;8.978;2022-11-02T07:03:39;6.85;;;1.40;;
27025;SDS011;14565;48.626;8.978;2022-11-02T07:06:05;9.95;;;1.45;;
27025;SDS011;14565;48.626;8.978;2022-11-02T07:08:31;7.75;;;1.58;;
27025;SDS011;14565;48.626;8.978;2022-11-02T07:10:56;5.80;;;1.38;;
27025;SDS011;14565;48.626;8.978;2022-11-02T07:13:22;6.93;;;1.45;;
27025;SDS011;14565;48.626;8.978;2022-11-02T07:15:52;7.05;;;1.67;;
27025;SDS011;14565;48.626;8.978;2022-11-02T07:18:18;8.57;;;1.38;;
27025;SDS011;14565;48.626;8.978;2022-11-02T07:20:43;9.68;;;1.30;;
27025;SDS011;14565;48.626;8.978;2022-11-02T07:23:09;12.15;;;1.85;;
27025;SDS011;14565;48.626;8.978;2022-11-02T07:25:35;5.53;;;1.33;;
27025;SDS011;14565;48.626;8.978;2022-11-02T07:28:01;12.13;;;1.27;;
27025;SDS011;14565;48.626;8.978;2022-11-02T07:30:27;8.32;;;1.50;;
27025;SDS011;14565;48.626;8.978;2022-11-02T07:32:54;8.77;;;1.60;;
27025;SDS011;14565;48.626;8.978;2022-11-02T07:35:19;8.40;;;1.52;;
27025;SDS011;14565;48.626;8.978;2022-11-02T07:38:02;6.35;;;1.40;;
27025;SDS011;14565;48.626;8.978;2022-11-02T07:40:29;9.68;;;1.90;;
27025;SDS011;14565;48.626;8.978;2022-11-02T07:42:56;5.72;;;1.13;;
27025;SDS011;14565;48.626;8.978;2022-11-02T07:45:23;6.30;;;1.25;;
27025;SDS011;14565;48.626;8.978;2022-11-02T07:47:49;5.88;;;1.23;;
27025;SDS011;14565;48.626;8.978;2022-11-02T07:50:16;6.65;;;1.35;;
27025;SDS011;14565;48.626;8.978;2022-11-02T07:55:09;9.23;;;1.30;;
27025;SDS011;14565;48.626;8.978;2022-11-02T07:57:36;7.45;;;1.23;;
27025;SDS011;14565;48.626;8.978;2022-11-02T08:00:02;5.78;;;1.30;;
27025;SDS011;14565;48.626;8.978;2022-11-02T08:02:27;5.43;;;0.95;;
27025;SDS011;14565;48.626;8.978;2022-11-02T08:04:53;5.70;;;1.25;;
27025;SDS011;14565;48.626;8.978;2022-11-02T08:07:19;7.38;;;1.38;;
27025;SDS011;14565;48.626;8.978;2022-11-02T08:09:44;13.38;;;1.30;;
27025;SDS011;14565;48.626;8.978;2022-11-02T08:12:10;16.02;;;1.80;;
27025;SDS011;14565;48.626;8.978;2022-11-02T08:14:35;7.22;;;1.55;;
27025;SDS011;14565;48.626;8.978;2022-11-02T08:17:01;5.65;;;1.10;;
27025;SDS011;14565;48.626;8.978;2022-11-02T08:19:27;5.30;;;1.20;;
27025;SDS011;14565;48.626;8.978;2022-11-02T08:21:52;8.27;;;1.00;;
27025;SDS011;14565;48.626;8.978;2022-11-02T08:24:20;5.68;;;1.10;;
27025;SDS011;14565;48.626;8.978;2022-11-02T08:26:45;6.00;;;1.30;;
27025;SDS011;14565;48.626;8.978;2022-11-02T08:29:11;7.82;;;5.80;;
27025;SDS011;14565;48.626;8.978;2022-11-02T08:31:37;4.70;;;1.35;;
27025;SDS011;14565;48.626;8.978;2022-11-02T08:34:02;7.57;;;1.40;;
27025;SDS011;14565;48.626;8.978;2022-11-02T08:36:28;7.53;;;1.38;;
27025;SDS011;14565;48.626;8.978;2022-11-02T08:38:53;7.18;;;1.40;;
27025;SDS011;14565;48.626;8.978;2022-11-02T08:41:19;6.60;;;0.93;;
27025;SDS011;14565;48.626;8.978;2022-11-02T08:43:45;7.53;;;1.52;;
27025;SDS011;14565;48.626;8.978;2022-11-02T08:46:10;7.43;;;1.40;;
27025;SDS011;14565;48.626;8.978;2022-11-02T08:48:36;7.60;;;1.50;;
27025;SDS011;14565;48.626;8.978;2022-11-02T08:51:02;10.75;;;1.75;;
27025;SDS011;14565;48.626;8.978;2022-11-02T08:53:29;15.73;;;2.05;;
27025;SDS011;14565;48.626;8.978;2022-11-02T08:55:58;15.48;;;2.20;;
27025;SDS011;14565;48.626;8.978;2022-11-02T08:58:23;10.73;;;1.63;;
27025;SDS011;14565;48.626;8.978;2022-11-02T09:00:51;6.68;;;1.60;;
27025;SDS011;14565;48.626;8.978;2022-11-02T09:03:17;9.20;;;1.45;;
27025;SDS011;14565;48.626;8.978;2022-11-02T09:05:44;7.63;;;1.10;;
27025;SDS011;14565;48.626;8.978;2022-11-02T09:08:11;5.07;;;1.23;;
27025;SDS011;14565;48.626;8.978;2022-11-02T09:10:39;10.27;;;1.00;;
27025;SDS011;14565;48.626;8.978;2022-11-02T09:13:05;12.75;;;1.73;;
27025;SDS011;14565;48.626;8.978;2022-11-02T09:15:33;20.45;;;2.45;;
27025;SDS011;14565;48.626;8.978;2022-11-02T09:18:00;19.75;;;2.80;;
27025;SDS011;14565;48.626;8.978;2022-11-02T09:20:26;10.48;;;1.98;;
27025;SDS011;14565;48.626;8.978;2022-11-02T09:22:52;5.95;;;1.30;;
27025;SDS011;14565;48.626;8.978;2022-11-02T09:25:17;6.13;;;1.20;;
27025;SDS011;14565;48.626;8.978;2022-11-02T09:27:43;7.88;;;1.38;;
27025;SDS011;14565;48.626;8.978;2022-11-02T09:30:09;10.07;;;1.92;;
27025;SDS011;14565;48.626;8.978;2022-11-02T09:32:36;9.18;;;1.50;;
27025;SDS011;14565;48.626;8.978;2022-11-02T09:35:04;7.97;;;1.50;;
27025;SDS011;14565;48.626;8.978;2022-11-02T09:37:32;5.03;;;1.20;;
27025;SDS011;14565;48.626;8.978;2022-11-02T09:39:58;9.48;;;1.15;;
27025;SDS011;14565;48.626;8.978;2022-11-02T09:45:04;10.10;;;1.98;;
27025;SDS011;14565;48.626;8.978;2022-11-02T09:47:34;6.07;;;1.35;;
27025;SDS011;14565;48.626;8.978;2022-11-02T09:50:32;8.85;;;1.42;;
27025;SDS011;14565;48.626;8.978;2022-11-02T09:53:26;5.15;;;1.30;;
27025;SDS011;14565;48.626;8.978;2022-11-02T09:56:00;4.97;;;1.38;;
27025;SDS011;14565;48.626;8.978;2022-11-02T09:58:32;5.43;;;1.20;;
27025;SDS011;14565;48.626;8.978;2022-11-02T10:01:04;5.75;;;1.10;;
27025;SDS011;14565;48.626;8.978;2022-11-02T10:03:57;7.68;;;1.27;;
27025;SDS011;14565;48.626;8.978;2022-11-02T10:06:51;19.67;;;2.15;;
27025;SDS011;14565;48.626;8.978;2022-11-02T10:09:28;6.40;;;1.10;;
27025;SDS011;14565;48.626;8.978;2022-11-02T10:12:16;6.30;;;1.70;;
27025;SDS011;14565;48.626;8.978;2022-11-02T10:17:43;5.55;;;1.25;;
27025;SDS011;14565;48.626;8.978;2022-11-02T10:23:25;5.95;;;1.65;;
27025;SDS011;14565;48.626;8.978;2022-11-02T10:25:56;8.50;;;1.30;;
27025;SDS011;14565;48.626;8.978;2022-11-02T10:28:26;7.13;;;0.97;;
27025;SDS011;14565;48.626;8.978;2022-11-02T10:30:59;11.00;;;1.95;;
27025;SDS011;14565;48.626;8.978;2022-11-02T10:33:27;15.13;;;1.92;;
27025;SDS011;14565;48.626;8.978;2022-11-02T10:39:41;5.43;;;1.20;;
27025;SDS011;14565;48.626;8.978;2022-11-02T10:52:34;8.80;;;1.90;;
27025;SDS011;14565;48.626;8.978;2022-11-02T10:55:06;8.60;;;1.35;;
27025;SDS011;14565;48.626;8.978;2022-11-02T10:57:38;4.78;;;1.10;;
27025;SDS011;14565;48.626;8.978;2022-11-02T11:03:05;13.80;;;2.58;;
27025;SDS011;14565;48.626;8.978;2022-11-02T11:08:40;10.43;;;1.20;;
27025;SDS011;14565;48.626;8.978;2022-11-02T11:16:44;4.80;;;1.20;;
27025;SDS011;14565;48.626;8.978;2022-11-02T11:21:44;9.35;;;1.85;;
27025;SDS011;14565;48.626;8.978;2022-11-02T11:29:36;4.43;;;1.42;;
27025;SDS011;14565;48.626;8.978;2022-11-02T11:32:03;7.50;;;1.15;;
27025;SDS011;14565;48.626;8.978;2022-11-02T11:34:37;5.85;;;1.33;;
27025;SDS011;14565;48.626;8.978;2022-11-02T11:37:09;7.40;;;1.27;;
27025;SDS011;14565;48.626;8.978;2022-11-02T11:39:38;7.38;;;1.17;;
27025;SDS011;14565;48.626;8.978;2022-11-02T11:42:12;7.40;;;1.42;;
27025;SDS011;14565;48.626;8.978;2022-11-02T11:44:45;8.57;;;1.63;;
27025;SDS011;14565;48.626;8.978;2022-11-02T11:47:30;8.27;;;1.30;;
27025;SDS011;14565;48.626;8.978;2022-11-02T11:50:00;4.85;;;1.27;;
27025;SDS011;14565;48.626;8.978;2022-11-02T11:52:29;6.45;;;1.10;;
27025;SDS011;14565;48.626;8.978;2022-11-02T11:54:58;7.63;;;1.30;;
27025;SDS011;14565;48.626;8.978;2022-11-02T11:59:55;8.73;;;1.45;;
27025;SDS011;14565;48.626;8.978;2022-11-02T12:18:53;7.32;;;1.70;;
27025;SDS011;14565;48.626;8.978;2022-11-02T12:42:36;26.60;;;3.17;;
27025;SDS011;14565;48.626;8.978;2022-11-02T12:45:25;11.05;;;1.23;;
27025;SDS011;14565;48.626;8.978;2022-11-02T12:48:06;11.05;;;1.58;;
27025;SDS011;14565;48.626;8.978;2022-11-02T12:53:45;7.00;;;0.90;;
27025;SDS011;14565;48.626;8.978;2022-11-02T12:56:19;6.63;;;1.23;;
27025;SDS011;14565;48.626;8.978;2022-11-02T12:58:50;8.82;;;1.10;;
27025;SDS011;14565;48.626;8.978;2022-11-02T13:01:19;6.72;;;1.15;;
27025;SDS011;14565;48.626;8.978;2022-11-02T13:04:00;6.05;;;1.08;;
27025;SDS011;14565;48.626;8.978;2022-11-02T13:06:37;8.07;;;1.38;;
27025;SDS011;14565;48.626;8.978;2022-11-02T13:09:12;6.28;;;1.15;;
27025;SDS011;14565;48.626;8.978;2022-11-02T13:11:47;8.90;;;1.50;;
27025;SDS011;14565;48.626;8.978;2022-11-02T13:14:42;18.23;;;2.17;;
27025;SDS011;14565;48.626;8.978;2022-11-02T13:17:13;10.40;;;1.60;;
27025;SDS011;14565;48.626;8.978;2022-11-02T13:19:47;5.00;;;1.08;;
27025;SDS011;14565;48.626;8.978;2022-11-02T13:22:17;9.43;;;1.42;;
27025;SDS011;14565;48.626;8.978;2022-11-02T13:24:57;7.95;;;1.30;;
27025;SDS011;14565;48.626;8.978;2022-11-02T13:27:37;5.82;;;1.30;;
27025;SDS011;14565;48.626;8.978;2022-11-02T13:30:17;5.57;;;1.10;;
27025;SDS011;14565;48.626;8.978;2022-11-02T13:51:35;4.15;;;0.90;;
27025;SDS011;14565;48.626;8.978;2022-11-02T13:54:13;5.77;;;1.17;;
27025;SDS011;14565;48.626;8.978;2022-11-02T13:56:49;4.07;;;1.05;;
27025;SDS011;14565;48.626;8.978;2022-11-02T13:59:28;7.63;;;1.20;;
27025;SDS011;14565;48.626;8.978;2022-11-02T14:01:57;5.35;;;1.02;;
27025;SDS011;14565;48.626;8.978;2022-11-02T14:04:25;5.47;;;1.30;;
27025;SDS011;14565;48.626;8.978;2022-11-02T14:06:58;5.38;;;1.30;;
27025;SDS011;14565;48.626;8.978;2022-11-02T14:09:38;5.68;;;1.10;;
27025;SDS011;14565;48.626;8.978;2022-11-02T14:25:52;8.73;;;1.67;;
27025;SDS011;14565;48.626;8.978;2022-11-02T14:40:47;5.85;;;1.20;;
27025;SDS011;14565;48.626;8.978;2022-11-02T14:47:54;4.00;;;1.38;;
27025;SDS011;14565;48.626;8.978;2022-11-02T14:50:22;4.97;;;1.15;;
27025;SDS011;14565;48.626;8.978;2022-11-02T14:52:54;6.10;;;1.27;;
27025;SDS011;14565;48.626;8.978;2022-11-02T14:55:33;6.10;;;1.38;;
27025;SDS011;14565;48.626;8.978;2022-11-02T14:58:18;6.38;;;1.17;;
27025;SDS011;14565;48.626;8.978;2022-11-02T15:08:55;4.72;;;1.20;;
27025;SDS011;14565;48.626;8.978;2022-11-02T15:27:35;6.20;;;0.93;;
27025;SDS011;14565;48.626;8.978;2022-11-02T15:30:05;5.70;;;1.35;;
27025;SDS011;14565;48.626;8.978;2022-11-02T15:32:37;5.65;;;1.40;;
27025;SDS011;14565;48.626;8.978;2022-11-02T15:35:05;7.65;;;1.10;;
27025;SDS011;14565;48.626;8.978;2022-11-02T15:37:40;4.78;;;1.40;;
27025;SDS011;14565;48.626;8.978;2022-11-02T15:40:08;5.38;;;1.30;;
27025;SDS011;14565;48.626;8.978;2022-11-02T15:53:28;6.53;;;1.40;;
27025;SDS011;14565;48.626;8.978;2022-11-02T16:01:24;7.43;;;1.30;;
27025;SDS011;14565;48.626;8.978;2022-11-02T16:03:52;5.82;;;1.40;;
27025;SDS011;14565;48.626;8.978;2022-11-02T16:06:25;7.13;;;1.23;;
27025;SDS011;14565;48.626;8.978;2022-11-02T16:08:56;9.10;;;1.30;;
27025;SDS011;14565;48.626;8.978;2022-11-02T16:11:24;7.63;;;1.60;;
27025;SDS011;14565;48.626;8.978;2022-11-02T16:13:50;5.90;;;1.17;;
27025;SDS011;14565;48.626;8.978;2022-11-02T16:16:17;5.55;;;1.48;;
27025;SDS011;14565;48.626;8.978;2022-11-02T16:18:47;5.68;;;1.65;;
27025;SDS011;14565;48.626;8.978;2022-11-02T16:21:21;12.23;;;2.13;;
27025;SDS011;14565;48.626;8.978;2022-11-02T16:23:48;5.63;;;1.65;;
27025;SDS011;14565;48.626;8.978;2022-11-02T16:26:20;9.55;;;1.50;;
27025;SDS011;14565;48.626;8.978;2022-11-02T16:28:49;6.50;;;1.25;;
27025;SDS011;14565;48.626;8.978;2022-11-02T16:31:27;10.25;;;1.73;;
27025;SDS011;14565;48.626;8.978;2022-11-02T16:33:57;12.23;;;1.90;;
27025;SDS011;14565;48.626;8.978;2022-11-02T16:36:31;5.13;;;1.45;;
27025;SDS011;14565;48.626;8.978;2022-11-02T16:41:47;5.38;;;1.30;;
27025;SDS011;14565;48.626;8.978;2022-11-02T16:49:25;11.07;;;3.00;;
27025;SDS011;14565;48.626;8.978;2022-11-02T16:51:53;5.57;;;2.17;;
27025;SDS011;14565;48.626;8.978;2022-11-02T16:54:38;11.23;;;2.40;;
27025;SDS011;14565;48.626;8.978;2022-11-02T16:57:06;4.68;;;2.30;;
27025;SDS011;14565;48.626;8.978;2022-11-02T16:59:49;5.75;;;2.20;;
27025;SDS011;14565;48.626;8.978;2022-11-02T17:02:28;5.93;;;2.13;;
27025;SDS011;14565;48.626;8.978;2022-11-02T17:04:58;7.85;;;1.80;;
27025;SDS011;14565;48.626;8.978;2022-11-02T17:07:29;7.97;;;1.98;;
27025;SDS011;14565;48.626;8.978;2022-11-02T17:09:59;5.55;;;1.80;;
27025;SDS011;14565;48.626;8.978;2022-11-02T17:12:28;6.63;;;1.90;;
27025;SDS011;14565;48.626;8.978;2022-11-02T17:15:10;14.07;;;3.40;;
27025;SDS011;14565;48.626;8.978;2022-11-02T17:17:49;11.35;;;3.60;;
27025;SDS011;14565;48.626;8.978;2022-11-02T17:20:36;13.02;;;2.22;;
27025;SDS011;14565;48.626;8.978;2022-11-02T17:23:07;6.35;;;1.60;;
27025;SDS011;14565;48.626;8.978;2022-11-02T17:25:35;6.72;;;2.08;;
27025;SDS011;14565;48.626;8.978;2022-11-02T17:28:04;9.95;;;2.10;;
27025;SDS011;14565;48.626;8.978;2022-11-02T17:30:57;7.85;;;2.25;;
27025;SDS011;14565;48.626;8.978;2022-11-02T17:33:25;10.52;;;2.20;;
27025;SDS011;14565;48.626;8.978;2022-11-02T17:35:53;11.20;;;3.00;;
27025;SDS011;14565;48.626;8.978;2022-11-02T17:38:25;12.45;;;2.55;;
27025;SDS011;14565;48.626;8.978;2022-11-02T17:40:51;5.28;;;2.67;;
27025;SDS011;14565;48.626;8.978;2022-11-02T17:43:18;9.18;;;2.95;;
27025;SDS011;14565;48.626;8.978;2022-11-02T17:45:45;10.50;;;4.50;;
27025;SDS011;14565;48.626;8.978;2022-11-02T17:48:17;8.60;;;3.80;;
27025;SDS011;14565;48.626;8.978;2022-11-02T17:50:42;13.27;;;4.07;;
27025;SDS011;14565;48.626;8.978;2022-11-02T17:53:09;10.50;;;4.57;;
27025;SDS011;14565;48.626;8.978;2022-11-02T17:55:36;12.52;;;3.88;;
27025;SDS011;14565;48.626;8.978;2022-11-02T17:58:03;10.55;;;4.40;;
27025;SDS011;14565;48.626;8.978;2022-11-02T18:00:30;10.52;;;3.67;;
27025;SDS011;14565;48.626;8.978;2022-11-02T18:02:59;11.82;;;3.05;;
27025;SDS011;14565;48.626;8.978;2022-11-02T18:05:26;17.20;;;4.47;;
27025;SDS011;14565;48.626;8.978;2022-11-02T18:07:54;23.27;;;8.73;;
27025;SDS011;14565;48.626;8.978;2022-11-02T18:10:23;26.80;;;13.43;;
27025;SDS011;14565;48.626;8.978;2022-11-02T18:12:51;16.65;;;8.38;;
27025;SDS011;14565;48.626;8.978;2022-11-02T18:15:19;11.68;;;4.32;;
27025;SDS011;14565;48.626;8.978;2022-11-02T18:17:47;10.07;;;4.53;;
27025;SDS011;14565;48.626;8.978;2022-11-02T18:20:13;14.13;;;8.73;;
27025;SDS011;14565;48.626;8.978;2022-11-02T18:22:43;12.65;;;6.72;;
27025;SDS011;14565;48.626;8.978;2022-11-02T18:25:10;13.90;;;7.90;;
27025;SDS011;14565;48.626;8.978;2022-11-02T18:30:04;26.42;;;13.13;;
27025;SDS011;14565;48.626;8.978;2022-11-02T18:32:34;16.33;;;8.02;;
27025;SDS011;14565;48.626;8.978;2022-11-02T18:35:00;11.85;;;6.15;;
27025;SDS011;14565;48.626;8.978;2022-11-02T18:37:26;22.02;;;11.30;;